Time;durP1;ratioP1;P1;durP2;ratioP2;P2;SDS_P1;SDS_P2;PMS_P1;PMS_P2;Temp;Humidity;BMP_temperature;BMP_pressure;BME280_temperature;BME280_humidity;BME280_pressure;Samples;Min_cycle;Max_cycle;Signal;HPM_P1;HPM_P2
2023/07/08 00:01:42;;;;;;;8.30;6.40;;;;;;;;;;4982627;28;20204;-74
2023/07/08 00:04:07;;;;;;;6.85;6.07;;;;;;;;;;4967161;28;20191;-74
2023/07/08 00:06:33;;;;;;;8.88;6.57;;;;;;;;;;4963924;28;20233;-74
2023/07/08 00:08:58;;;;;;;8.77;6.57;;;;;;;;;;4987650;28;20252;-74
2023/07/08 00:11:23;;;;;;;6.20;5.37;;;;;;;;;;4966363;28;20183;-74
2023/07/08 00:13:48;;;;;;;8.43;6.03;;;;;;;;;;4969469;28;20317;-74
2023/07/08 00:16:16;;;;;;;9.02;6.65;;;;;;;;;;4969413;28;20184;-73
2023/07/08 00:18:41;;;;;;;9.65;5.80;;;;;;;;;;4979610;28;20184;-74
2023/07/08 00:21:17;;;;;;;8.18;6.25;;;;;;;;;;4971598;28;20270;-74
2023/07/08 00:23:46;;;;;;;7.30;5.65;;;;;;;;;;4985200;28;20186;-74
2023/07/08 00:26:19;;;;;;;9.57;6.17;;;;;;;;;;4990741;28;20202;-74
2023/07/08 00:28:44;;;;;;;7.03;5.75;;;;;;;;;;4987478;28;20187;-74
2023/07/08 00:31:10;;;;;;;7.80;5.97;;;;;;;;;;4982914;28;20180;-73
2023/07/08 00:33:35;;;;;;;8.30;5.60;;;;;;;;;;4986225;28;20183;-73
2023/07/08 00:36:00;;;;;;;7.00;5.73;;;;;;;;;;4989479;28;20187;-73
2023/07/08 00:38:28;;;;;;;7.73;6.13;;;;;;;;;;4962290;28;20184;-74
2023/07/08 00:41:07;;;;;;;7.53;6.10;;;;;;;;;;4965698;28;20225;-74
2023/07/08 00:43:37;;;;;;;8.13;6.77;;;;;;;;;;4989437;28;20183;-73
2023/07/08 00:46:18;;;;;;;7.43;5.87;;;;;;;;;;4983627;28;20186;-74
2023/07/08 00:48:44;;;;;;;7.63;5.90;;;;;;;;;;4968233;28;20233;-74
2023/07/08 00:51:13;;;;;;;7.17;5.70;;;;;;;;;;4970545;28;20206;-74
2023/07/08 00:53:38;;;;;;;7.63;6.03;;;;;;;;;;4967577;28;20194;-73
2023/07/08 00:56:08;;;;;;;9.63;6.10;;;;;;;;;;4967531;28;20271;-74
2023/07/08 00:58:36;;;;;;;7.93;6.27;;;;;;;;;;4984937;28;20184;-74
2023/07/08 01:01:03;;;;;;;9.77;6.37;;;;;;;;;;4977441;28;20281;-73
2023/07/08 01:03:28;;;;;;;7.47;6.20;;;;;;;;;;4991832;28;20194;-74
2023/07/08 01:05:56;;;;;;;8.30;6.27;;;;;;;;;;4974158;28;20192;-74
2023/07/08 01:08:28;;;;;;;6.70;5.70;;;;;;;;;;4971791;28;20188;-74
2023/07/08 01:10:57;;;;;;;11.00;5.88;;;;;;;;;;4974574;28;20206;-74
2023/07/08 01:13:22;;;;;;;6.90;6.20;;;;;;;;;;4976002;28;20251;-74
2023/07/08 01:15:49;;;;;;;8.33;5.73;;;;;;;;;;4992258;28;20223;-74
2023/07/08 01:18:20;;;;;;;6.83;5.93;;;;;;;;;;4978865;28;20175;-74
2023/07/08 01:20:47;;;;;;;11.55;6.30;;;;;;;;;;4975027;28;20295;-74
2023/07/08 01:23:12;;;;;;;8.67;5.83;;;;;;;;;;4977032;28;20184;-74
2023/07/08 01:25:38;;;;;;;7.20;6.00;;;;;;;;;;4975308;28;20176;-74
2023/07/08 01:28:04;;;;;;;7.00;5.93;;;;;;;;;;4991737;28;20233;-74
2023/07/08 01:30:29;;;;;;;9.40;6.63;;;;;;;;;;4987122;28;20176;-74
2023/07/08 01:32:56;;;;;;;8.60;5.60;;;;;;;;;;4974293;28;20198;-74
2023/07/08 01:35:21;;;;;;;8.83;6.63;;;;;;;;;;4970202;28;20184;-74
2023/07/08 01:37:49;;;;;;;8.80;6.20;;;;;;;;;;4969209;28;20187;-74
2023/07/08 01:40:14;;;;;;;7.90;6.40;;;;;;;;;;4974277;28;20172;-74
2023/07/08 01:42:40;;;;;;;6.70;5.57;;;;;;;;;;4973730;28;20208;-74
2023/07/08 01:45:10;;;;;;;8.17;6.03;;;;;;;;;;4965950;28;20195;-74
2023/07/08 01:47:35;;;;;;;7.07;5.43;;;;;;;;;;4970915;28;20270;-74
2023/07/08 01:50:01;;;;;;;8.57;6.60;;;;;;;;;;4969387;28;20242;-74
2023/07/08 01:52:26;;;;;;;6.33;5.53;;;;;;;;;;4973465;28;20193;-74
2023/07/08 01:54:54;;;;;;;6.97;5.83;;;;;;;;;;4978310;28;20178;-74
2023/07/08 01:57:19;;;;;;;7.00;6.17;;;;;;;;;;4977051;28;20272;-74
2023/07/08 01:59:44;;;;;;;7.27;5.83;;;;;;;;;;4990454;28;20280;-74
2023/07/08 02:02:10;;;;;;;9.33;7.07;;;;;;;;;;4988084;28;20215;-74
2023/07/08 02:04:35;;;;;;;7.03;5.83;;;;;;;;;;4985636;28;20175;-74
2023/07/08 02:07:00;;;;;;;6.70;5.60;;;;;;;;;;4969296;28;20187;-74
2023/07/08 02:09:26;;;;;;;7.00;5.77;;;;;;;;;;4987653;28;20186;-74
2023/07/08 02:11:52;;;;;;;8.03;6.13;;;;;;;;;;4968574;28;20321;-74
2023/07/08 02:14:17;;;;;;;9.43;5.73;;;;;;;;;;4975950;28;20226;-73
2023/07/08 02:16:42;;;;;;;8.37;6.00;;;;;;;;;;4966275;28;20183;-74
2023/07/08 02:19:09;;;;;;;8.73;6.47;;;;;;;;;;4969693;28;20320;-73
2023/07/08 02:21:34;;;;;;;7.30;6.00;;;;;;;;;;4969925;28;20212;-74
2023/07/08 02:24:00;;;;;;;7.53;6.23;;;;;;;;;;4974943;28;20269;-74
2023/07/08 02:26:26;;;;;;;7.10;6.20;;;;;;;;;;4973636;28;20174;-74
2023/07/08 02:28:51;;;;;;;8.87;6.70;;;;;;;;;;4966874;28;20170;-73
2023/07/08 02:31:16;;;;;;;9.97;6.23;;;;;;;;;;4975424;28;20194;-74
2023/07/08 02:33:42;;;;;;;6.77;5.63;;;;;;;;;;4968202;28;20193;-74
2023/07/08 02:36:07;;;;;;;8.87;5.80;;;;;;;;;;4964825;28;20194;-74
2023/07/08 02:38:32;;;;;;;9.97;6.30;;;;;;;;;;4975680;28;20207;-74
2023/07/08 02:40:58;;;;;;;7.43;6.30;;;;;;;;;;4989469;28;20206;-73
2023/07/08 02:43:23;;;;;;;8.60;6.27;;;;;;;;;;4984029;28;20185;-74
2023/07/08 02:45:49;;;;;;;9.37;6.20;;;;;;;;;;4991441;28;20184;-73
2023/07/08 02:48:14;;;;;;;7.67;6.40;;;;;;;;;;4991592;28;20180;-73
2023/07/08 02:50:39;;;;;;;9.60;7.63;;;;;;;;;;4990089;28;20179;-74
2023/07/08 02:53:05;;;;;;;7.70;6.23;;;;;;;;;;4988262;28;20204;-74
2023/07/08 02:55:30;;;;;;;8.53;6.33;;;;;;;;;;4980591;28;20177;-74
2023/07/08 02:57:56;;;;;;;8.03;6.07;;;;;;;;;;4987033;28;20250;-74
2023/07/08 03:00:21;;;;;;;7.67;5.93;;;;;;;;;;4990260;28;20189;-74
2023/07/08 03:02:46;;;;;;;8.83;6.43;;;;;;;;;;4972814;28;20213;-74
2023/07/08 03:05:11;;;;;;;8.70;6.50;;;;;;;;;;4971137;28;20180;-74
2023/07/08 03:07:36;;;;;;;7.03;5.77;;;;;;;;;;4986454;28;20394;-74
2023/07/08 03:10:02;;;;;;;9.50;6.23;;;;;;;;;;4988597;28;20189;-74
2023/07/08 03:12:27;;;;;;;6.97;5.73;;;;;;;;;;4969363;28;20245;-74
2023/07/08 03:14:52;;;;;;;8.03;6.10;;;;;;;;;;4986203;28;20205;-74
2023/07/08 03:17:18;;;;;;;8.03;5.80;;;;;;;;;;4985714;28;20235;-74
2023/07/08 03:19:44;;;;;;;6.77;5.57;;;;;;;;;;4968666;28;20241;-74
2023/07/08 03:22:09;;;;;;;7.17;5.97;;;;;;;;;;4967882;28;20240;-74
2023/07/08 03:24:34;;;;;;;8.43;6.13;;;;;;;;;;4966409;28;20202;-74
2023/07/08 03:27:04;;;;;;;8.30;6.23;;;;;;;;;;4984406;28;20193;-74
2023/07/08 03:29:30;;;;;;;7.77;5.73;;;;;;;;;;4974858;28;20181;-73
2023/07/08 03:31:55;;;;;;;9.00;6.47;;;;;;;;;;4978416;28;20234;-74
2023/07/08 03:34:20;;;;;;;9.50;6.47;;;;;;;;;;4963933;28;20175;-74
2023/07/08 03:36:50;;;;;;;9.07;6.60;;;;;;;;;;4972450;28;20173;-73
2023/07/08 03:39:17;;;;;;;6.90;5.57;;;;;;;;;;4967316;28;20271;-74
2023/07/08 03:41:42;;;;;;;7.03;5.37;;;;;;;;;;4973071;28;20193;-74
2023/07/08 03:44:07;;;;;;;8.83;6.57;;;;;;;;;;4969046;28;20182;-73
2023/07/08 03:46:32;;;;;;;7.23;6.13;;;;;;;;;;4973139;28;20180;-74
2023/07/08 03:48:57;;;;;;;9.87;6.33;;;;;;;;;;4990605;28;20176;-74
2023/07/08 03:51:25;;;;;;;6.53;5.83;;;;;;;;;;4986701;28;20178;-73
2023/07/08 03:53:51;;;;;;;9.17;6.07;;;;;;;;;;4988411;28;20258;-73
2023/07/08 03:56:17;;;;;;;7.07;6.37;;;;;;;;;;4968627;28;20276;-73
2023/07/08 03:58:42;;;;;;;8.83;6.33;;;;;;;;;;4972539;28;20195;-73
2023/07/08 04:01:15;;;;;;;7.33;6.53;;;;;;;;;;4969425;28;20209;-73
2023/07/08 04:03:40;;;;;;;8.50;5.73;;;;;;;;;;4988048;28;20173;-73
2023/07/08 04:06:05;;;;;;;7.43;5.63;;;;;;;;;;4972551;28;20188;-73
2023/07/08 04:08:31;;;;;;;9.03;6.23;;;;;;;;;;4975546;28;20214;-73
2023/07/08 04:10:56;;;;;;;9.23;5.83;;;;;;;;;;4969221;28;20181;-73
2023/07/08 04:13:21;;;;;;;9.73;5.57;;;;;;;;;;4974467;28;20233;-73
2023/07/08 04:15:51;;;;;;;6.20;5.60;;;;;;;;;;4967734;28;20199;-73
2023/07/08 04:18:16;;;;;;;7.47;6.07;;;;;;;;;;4965793;28;20177;-73
2023/07/08 04:20:41;;;;;;;7.40;6.60;;;;;;;;;;4965127;28;20181;-73
2023/07/08 04:23:06;;;;;;;6.30;5.33;;;;;;;;;;4982630;28;20182;-73
2023/07/08 04:25:32;;;;;;;12.47;6.63;;;;;;;;;;4988655;28;20178;-73
2023/07/08 04:27:57;;;;;;;7.90;5.73;;;;;;;;;;4969273;28;20182;-73
2023/07/08 04:30:25;;;;;;;11.13;6.43;;;;;;;;;;4990563;28;20270;-73
2023/07/08 04:32:51;;;;;;;8.53;5.70;;;;;;;;;;4973745;28;20246;-73
2023/07/08 04:35:16;;;;;;;9.67;5.80;;;;;;;;;;4974918;28;20281;-73
2023/07/08 04:37:41;;;;;;;6.47;5.33;;;;;;;;;;4991367;28;20273;-73
2023/07/08 04:40:14;;;;;;;7.93;5.80;;;;;;;;;;4973167;28;20189;-73
2023/07/08 04:42:39;;;;;;;9.13;5.53;;;;;;;;;;4987233;28;20213;-73
2023/07/08 04:45:05;;;;;;;6.93;5.37;;;;;;;;;;4979936;28;20184;-74
2023/07/08 04:47:33;;;;;;;8.90;5.80;;;;;;;;;;4976996;28;20183;-73
2023/07/08 04:49:58;;;;;;;7.57;5.13;;;;;;;;;;4980035;28;20191;-73
2023/07/08 04:52:23;;;;;;;8.97;5.57;;;;;;;;;;4977263;28;20196;-73
2023/07/08 04:54:48;;;;;;;6.23;5.23;;;;;;;;;;4970963;28;20188;-73
2023/07/08 04:57:16;;;;;;;5.73;4.57;;;;;;;;;;4972561;28;20192;-73
2023/07/08 04:59:41;;;;;;;6.07;4.10;;;;;;;;;;4991810;28;20171;-73
2023/07/08 05:02:06;;;;;;;7.37;4.47;;;;;;;;;;4978446;28;20217;-73
2023/07/08 05:04:33;;;;;;;5.83;4.10;;;;;;;;;;4979736;28;20197;-73
2023/07/08 05:06:58;;;;;;;7.00;4.63;;;;;;;;;;4979717;28;20187;-73
2023/07/08 05:09:25;;;;;;;4.50;3.93;;;;;;;;;;4970351;28;20190;-74
2023/07/08 05:11:51;;;;;;;5.43;4.28;;;;;;;;;;4989031;28;20198;-73
2023/07/08 05:14:16;;;;;;;5.75;3.83;;;;;;;;;;4973718;28;20236;-73
2023/07/08 05:16:41;;;;;;;4.67;3.77;;;;;;;;;;4987101;28;20181;-74
2023/07/08 05:19:06;;;;;;;6.60;4.37;;;;;;;;;;4994985;28;20254;-73
2023/07/08 05:21:33;;;;;;;4.25;3.72;;;;;;;;;;4994018;28;20255;-73
2023/07/08 05:24:02;;;;;;;4.97;3.78;;;;;;;;;;4991747;28;20184;-73
2023/07/08 05:26:27;;;;;;;3.67;3.20;;;;;;;;;;4968368;28;20227;-73
2023/07/08 05:28:52;;;;;;;4.65;3.60;;;;;;;;;;4989331;28;20177;-73
2023/07/08 05:31:18;;;;;;;5.75;4.32;;;;;;;;;;4970374;28;20187;-73
2023/07/08 05:33:43;;;;;;;5.65;3.83;;;;;;;;;;4970269;28;20186;-73
2023/07/08 05:36:08;;;;;;;3.95;3.55;;;;;;;;;;4973586;28;20185;-73
2023/07/08 05:38:33;;;;;;;4.90;3.83;;;;;;;;;;4967183;28;20196;-73
2023/07/08 05:40:59;;;;;;;4.53;3.67;;;;;;;;;;4965530;28;20272;-73
2023/07/08 05:43:25;;;;;;;5.43;3.77;;;;;;;;;;4971897;28;20180;-73
2023/07/08 05:45:50;;;;;;;5.80;3.85;;;;;;;;;;4991846;28;20184;-73
2023/07/08 05:48:15;;;;;;;6.80;4.27;;;;;;;;;;4987506;28;20209;-73
2023/07/08 05:50:40;;;;;;;6.93;4.17;;;;;;;;;;4991857;28;20183;-73
2023/07/08 05:53:09;;;;;;;4.97;4.07;;;;;;;;;;4965633;28;20188;-73
2023/07/08 05:55:34;;;;;;;8.77;4.57;;;;;;;;;;4980635;28;20183;-73
2023/07/08 05:57:59;;;;;;;5.40;4.30;;;;;;;;;;4989314;28;20176;-73
2023/07/08 06:00:25;;;;;;;6.00;4.25;;;;;;;;;;4985750;28;20183;-73
2023/07/08 06:02:50;;;;;;;6.45;3.83;;;;;;;;;;4984622;28;20204;-73
2023/07/08 06:05:15;;;;;;;4.43;3.42;;;;;;;;;;4987331;28;20172;-73
2023/07/08 06:07:41;;;;;;;5.75;3.60;;;;;;;;;;4977415;28;20215;-73
2023/07/08 06:10:06;;;;;;;8.15;3.20;;;;;;;;;;4981332;28;20212;-73
2023/07/08 06:12:32;;;;;;;5.28;2.90;;;;;;;;;;4973014;28;20291;-73
2023/07/08 06:14:57;;;;;;;4.07;3.67;;;;;;;;;;4975696;28;20239;-73
2023/07/08 06:17:22;;;;;;;4.63;3.42;;;;;;;;;;4990256;28;20172;-73
2023/07/08 06:19:48;;;;;;;6.10;3.70;;;;;;;;;;4990508;28;20184;-73
2023/07/08 06:22:13;;;;;;;3.80;2.90;;;;;;;;;;4990600;28;20262;-73
2023/07/08 06:24:38;;;;;;;3.75;3.28;;;;;;;;;;4992561;28;20263;-73
2023/07/08 06:27:03;;;;;;;3.65;3.00;;;;;;;;;;4972479;28;20184;-73
2023/07/08 06:29:29;;;;;;;4.75;3.42;;;;;;;;;;4970768;28;20176;-74
2023/07/08 06:31:54;;;;;;;5.70;3.70;;;;;;;;;;4974265;28;20181;-73
2023/07/08 06:34:22;;;;;;;6.43;3.72;;;;;;;;;;4984782;28;20176;-73
2023/07/08 06:36:47;;;;;;;3.40;3.10;;;;;;;;;;4970447;28;20200;-72
2023/07/08 06:39:12;;;;;;;4.65;3.13;;;;;;;;;;4970761;28;20243;-72
2023/07/08 06:41:38;;;;;;;5.07;3.22;;;;;;;;;;4987449;28;20226;-73
2023/07/08 06:44:03;;;;;;;4.00;2.95;;;;;;;;;;4969318;28;20184;-73
2023/07/08 06:46:29;;;;;;;3.72;2.80;;;;;;;;;;4971509;28;20181;-73
2023/07/08 06:48:54;;;;;;;5.13;3.15;;;;;;;;;;4983092;28;20260;-73
2023/07/08 06:51:19;;;;;;;5.55;3.50;;;;;;;;;;4992070;28;20259;-73
2023/07/08 06:53:44;;;;;;;4.45;3.08;;;;;;;;;;4967006;28;20219;-73
2023/07/08 06:56:10;;;;;;;4.03;2.80;;;;;;;;;;4987243;28;20271;-72
2023/07/08 06:58:35;;;;;;;5.85;3.00;;;;;;;;;;4989110;28;20189;-73
2023/07/08 07:01:00;;;;;;;3.63;3.10;;;;;;;;;;4987540;28;20211;-73
2023/07/08 07:03:25;;;;;;;4.60;3.05;;;;;;;;;;4983573;28;20177;-73
2023/07/08 07:05:51;;;;;;;6.60;3.22;;;;;;;;;;4987020;28;20184;-73
2023/07/08 07:08:16;;;;;;;5.40;3.08;;;;;;;;;;4970884;28;20173;-73
2023/07/08 07:10:41;;;;;;;4.85;2.95;;;;;;;;;;4992686;28;20179;-73
2023/07/08 07:13:07;;;;;;;3.83;2.97;;;;;;;;;;4984979;28;20236;-73
2023/07/08 07:15:32;;;;;;;4.13;3.20;;;;;;;;;;4988646;28;20184;-73
2023/07/08 07:17:57;;;;;;;4.50;2.70;;;;;;;;;;4986172;28;20274;-73
2023/07/08 07:20:22;;;;;;;3.28;2.83;;;;;;;;;;4969420;28;20181;-73
2023/07/08 07:22:47;;;;;;;6.13;3.25;;;;;;;;;;4976607;28;20215;-73
2023/07/08 07:25:13;;;;;;;3.70;2.83;;;;;;;;;;4983026;28;20223;-73
2023/07/08 07:27:38;;;;;;;3.05;2.58;;;;;;;;;;4984782;28;20246;-73
2023/07/08 07:30:03;;;;;;;5.57;2.97;;;;;;;;;;4979608;28;20184;-73
2023/07/08 07:32:29;;;;;;;3.80;2.85;;;;;;;;;;4968489;28;20246;-73
2023/07/08 07:34:55;;;;;;;4.60;2.75;;;;;;;;;;4968981;28;20181;-73
2023/07/08 07:37:21;;;;;;;5.60;2.70;;;;;;;;;;4970567;28;20216;-73
2023/07/08 07:39:46;;;;;;;4.30;2.90;;;;;;;;;;4974348;28;20215;-73
2023/07/08 07:42:13;;;;;;;3.10;2.85;;;;;;;;;;4982992;28;20285;-72
2023/07/08 07:44:41;;;;;;;5.07;2.78;;;;;;;;;;4989115;28;20180;-73
2023/07/08 07:47:07;;;;;;;3.47;2.85;;;;;;;;;;4988943;28;20255;-73
2023/07/08 07:49:32;;;;;;;4.47;2.80;;;;;;;;;;4977595;28;20249;-75
2023/07/08 07:51:57;;;;;;;3.00;2.38;;;;;;;;;;4966370;28;20176;-75
2023/07/08 07:54:23;;;;;;;4.38;2.70;;;;;;;;;;4989650;28;20180;-75
2023/07/08 07:56:48;;;;;;;5.57;2.55;;;;;;;;;;4964332;28;20207;-75
2023/07/08 07:59:13;;;;;;;5.28;2.88;;;;;;;;;;4974985;28;20184;-73
2023/07/08 08:01:38;;;;;;;3.88;2.53;;;;;;;;;;4976552;28;20286;-73
2023/07/08 08:04:04;;;;;;;7.70;2.95;;;;;;;;;;4981310;28;20319;-73
2023/07/08 08:06:29;;;;;;;4.22;2.38;;;;;;;;;;4972689;28;20230;-73
2023/07/08 08:08:56;;;;;;;4.60;2.88;;;;;;;;;;4966309;28;20181;-73
2023/07/08 08:11:21;;;;;;;9.45;2.85;;;;;;;;;;4972614;28;20247;-73
2023/07/08 08:13:46;;;;;;;2.83;2.30;;;;;;;;;;4967035;28;20320;-74
2023/07/08 08:16:11;;;;;;;4.47;2.45;;;;;;;;;;4967333;28;20196;-73
2023/07/08 08:18:37;;;;;;;7.57;3.10;;;;;;;;;;4954558;28;20181;-73
2023/07/08 08:21:02;;;;;;;6.10;2.88;;;;;;;;;;4967496;28;20602;-73
2023/07/08 08:23:27;;;;;;;2.58;2.30;;;;;;;;;;4954365;28;20178;-73
2023/07/08 08:25:52;;;;;;;3.42;2.40;;;;;;;;;;4962969;28;20177;-73
2023/07/08 08:28:18;;;;;;;4.18;2.25;;;;;;;;;;4952301;28;20192;-73
2023/07/08 08:30:47;;;;;;;4.13;2.40;;;;;;;;;;4956525;28;20181;-73
2023/07/08 08:33:12;;;;;;;3.72;2.53;;;;;;;;;;4952660;28;20209;-73
2023/07/08 08:35:37;;;;;;;3.38;2.45;;;;;;;;;;4947677;29;20256;-73
2023/07/08 08:38:03;;;;;;;4.82;2.35;;;;;;;;;;4967549;28;20259;-75
2023/07/08 08:40:29;;;;;;;2.78;2.33;;;;;;;;;;4970935;28;20184;-73
2023/07/08 08:43:00;;;;;;;6.05;2.83;;;;;;;;;;4970010;28;20212;-73
2023/07/08 08:45:26;;;;;;;3.40;2.45;;;;;;;;;;4950647;29;20178;-72
2023/07/08 08:47:54;;;;;;;3.42;1.98;;;;;;;;;;4963942;28;20236;-75
2023/07/08 08:50:27;;;;;;;2.88;2.10;;;;;;;;;;4947107;28;20240;-75
2023/07/08 08:52:54;;;;;;;3.25;2.20;;;;;;;;;;4943148;28;20280;-75
2023/07/08 08:55:20;;;;;;;4.30;2.00;;;;;;;;;;4967666;28;20169;-73
2023/07/08 08:57:51;;;;;;;3.35;2.10;;;;;;;;;;4965601;28;20186;-73
2023/07/08 09:00:20;;;;;;;2.88;2.15;;;;;;;;;;4968396;28;20181;-73
2023/07/08 09:03:01;;;;;;;3.10;2.17;;;;;;;;;;4952368;28;20279;-73
2023/07/08 09:05:26;;;;;;;3.67;1.98;;;;;;;;;;4964740;28;20174;-73
2023/07/08 09:08:10;;;;;;;3.08;2.10;;;;;;;;;;4969062;28;20188;-73
2023/07/08 09:10:42;;;;;;;2.17;1.98;;;;;;;;;;4945801;28;20185;-73
2023/07/08 09:13:11;;;;;;;2.38;1.90;;;;;;;;;;4970124;28;20233;-73
2023/07/08 09:15:37;;;;;;;3.35;2.28;;;;;;;;;;4972623;28;20223;-73
2023/07/08 09:18:11;;;;;;;2.13;1.90;;;;;;;;;;4965139;28;20212;-73
2023/07/08 09:20:36;;;;;;;2.28;1.75;;;;;;;;;;4973400;28;20184;-73
2023/07/08 09:23:07;;;;;;;4.55;2.20;;;;;;;;;;4974631;28;20279;-73
2023/07/08 09:25:49;;;;;;;3.03;2.20;;;;;;;;;;4972238;28;20177;-73
2023/07/08 09:28:14;;;;;;;4.00;2.80;;;;;;;;;;4985067;28;20176;-72
2023/07/08 09:30:40;;;;;;;7.65;3.40;;;;;;;;;;4992679;28;20183;-73
2023/07/08 09:33:07;;;;;;;6.70;3.10;;;;;;;;;;4982543;28;20287;-73
2023/07/08 09:35:42;;;;;;;5.03;4.47;;;;;;;;;;4975207;28;20184;-73
2023/07/08 09:38:08;;;;;;;6.72;4.13;;;;;;;;;;4990383;28;20180;-73
2023/07/08 09:40:34;;;;;;;5.28;3.90;;;;;;;;;;4973123;28;20180;-73
2023/07/08 09:43:03;;;;;;;5.25;3.53;;;;;;;;;;4982211;28;20220;-73
2023/07/08 09:45:29;;;;;;;4.07;3.13;;;;;;;;;;4969955;28;20186;-73
2023/07/08 09:47:57;;;;;;;5.63;3.92;;;;;;;;;;4988946;28;20284;-73
2023/07/08 09:50:24;;;;;;;5.60;3.85;;;;;;;;;;4986808;28;20260;-74
2023/07/08 09:52:51;;;;;;;4.65;3.20;;;;;;;;;;4977743;28;20168;-73
2023/07/08 09:55:17;;;;;;;4.68;3.72;;;;;;;;;;4974373;28;20246;-73
2023/07/08 09:57:43;;;;;;;4.43;3.92;;;;;;;;;;4982113;28;20181;-73
2023/07/08 10:00:11;;;;;;;5.65;3.25;;;;;;;;;;4969755;28;20227;-73
2023/07/08 10:02:39;;;;;;;5.03;2.85;;;;;;;;;;4969879;28;20197;-73
2023/07/08 10:05:25;;;;;;;4.10;3.00;;;;;;;;;;4989005;28;20180;-73
2023/07/08 10:07:52;;;;;;;4.47;3.30;;;;;;;;;;4973289;28;20203;-74
2023/07/08 10:10:22;;;;;;;4.22;3.30;;;;;;;;;;4989484;28;20184;-73
2023/07/08 10:13:03;;;;;;;4.28;3.55;;;;;;;;;;4968173;28;20232;-73
2023/07/08 10:15:35;;;;;;;3.78;3.20;;;;;;;;;;4970145;28;20184;-73
2023/07/08 10:18:00;;;;;;;4.03;3.20;;;;;;;;;;4989267;28;20223;-73
2023/07/08 10:20:29;;;;;;;6.15;3.92;;;;;;;;;;4973607;28;20176;-73
2023/07/08 10:23:16;;;;;;;7.43;4.07;;;;;;;;;;4992590;28;20200;-73
2023/07/08 10:25:46;;;;;;;5.43;3.47;;;;;;;;;;4985482;28;20180;-73
2023/07/08 10:28:23;;;;;;;4.38;3.53;;;;;;;;;;4971904;28;20180;-73
2023/07/08 10:30:55;;;;;;;5.50;3.20;;;;;;;;;;4982569;28;20200;-73
2023/07/08 10:33:26;;;;;;;4.18;3.35;;;;;;;;;;4969369;28;20172;-73
2023/07/08 10:36:03;;;;;;;5.75;3.42;;;;;;;;;;4983802;28;20226;-73
2023/07/08 10:38:31;;;;;;;16.20;5.13;;;;;;;;;;4966874;28;20191;-73
2023/07/08 10:41:00;;;;;;;4.50;3.67;;;;;;;;;;4984379;28;20180;-73
2023/07/08 10:43:25;;;;;;;3.30;3.00;;;;;;;;;;4989240;28;20169;-73
2023/07/08 10:45:59;;;;;;;5.13;3.10;;;;;;;;;;4970176;28;20180;-73
2023/07/08 10:48:24;;;;;;;5.45;3.50;;;;;;;;;;4990683;28;20422;-73
2023/07/08 10:51:01;;;;;;;4.80;3.58;;;;;;;;;;4963992;28;20192;-73
2023/07/08 10:53:55;;;;;;;7.20;3.75;;;;;;;;;;4988004;28;20176;-73
2023/07/08 10:56:21;;;;;;;4.35;3.60;;;;;;;;;;4971359;28;20168;-75
2023/07/08 10:58:50;;;;;;;6.30;3.50;;;;;;;;;;4983062;28;20205;-75
2023/07/08 11:01:24;;;;;;;4.57;3.80;;;;;;;;;;4985815;28;20236;-73
2023/07/08 11:04:08;;;;;;;4.68;3.67;;;;;;;;;;4986532;28;20176;-73
2023/07/08 11:06:39;;;;;;;3.78;3.47;;;;;;;;;;4975106;28;20195;-73
2023/07/08 11:09:07;;;;;;;7.03;3.65;;;;;;;;;;4982753;28;20207;-73
2023/07/08 11:11:37;;;;;;;4.40;3.17;;;;;;;;;;4973951;28;20175;-74
2023/07/08 11:14:18;;;;;;;3.42;3.13;;;;;;;;;;4975359;28;20239;-73
2023/07/08 11:16:58;;;;;;;3.63;3.20;;;;;;;;;;4976207;28;20184;-73
2023/07/08 11:19:23;;;;;;;4.38;3.20;;;;;;;;;;4979867;28;20180;-73
2023/07/08 11:21:50;;;;;;;4.53;3.63;;;;;;;;;;4982562;28;20215;-73
2023/07/08 11:24:25;;;;;;;7.32;3.63;;;;;;;;;;4966573;28;20180;-73
2023/07/08 11:26:53;;;;;;;3.95;3.28;;;;;;;;;;4988217;28;20179;-74
2023/07/08 11:29:20;;;;;;;4.03;3.10;;;;;;;;;;4980123;28;20240;-74
2023/07/08 11:31:46;;;;;;;5.45;3.22;;;;;;;;;;4990471;28;20238;-74
2023/07/08 11:34:12;;;;;;;3.33;2.97;;;;;;;;;;4968774;28;20199;-74
2023/07/08 11:36:37;;;;;;;6.80;3.55;;;;;;;;;;4974219;28;20177;-74
2023/07/08 11:39:23;;;;;;;6.97;3.70;;;;;;;;;;4968550;28;20183;-73
2023/07/08 11:41:52;;;;;;;3.92;3.00;;;;;;;;;;4987151;28;20200;-73
2023/07/08 11:44:17;;;;;;;3.60;3.30;;;;;;;;;;4986218;28;20177;-73
2023/07/08 11:46:53;;;;;;;5.45;3.30;;;;;;;;;;4976189;28;20183;-73
2023/07/08 11:49:18;;;;;;;3.17;2.95;;;;;;;;;;4973048;28;20176;-73
2023/07/08 11:51:45;;;;;;;5.05;3.70;;;;;;;;;;4975282;28;20248;-73
2023/07/08 11:54:12;;;;;;;4.55;3.60;;;;;;;;;;4983930;28;20172;-73
2023/07/08 11:56:58;;;;;;;5.63;3.88;;;;;;;;;;4981254;28;20206;-73
2023/07/08 11:59:24;;;;;;;4.50;3.50;;;;;;;;;;4981991;28;20230;-73
2023/07/08 12:01:49;;;;;;;4.07;2.78;;;;;;;;;;4987842;28;20223;-73
2023/07/08 12:04:16;;;;;;;4.50;3.00;;;;;;;;;;4962824;28;20176;-73
2023/07/08 12:06:43;;;;;;;4.28;3.00;;;;;;;;;;4980833;28;20177;-73
2023/07/08 12:09:19;;;;;;;5.47;3.00;;;;;;;;;;4963078;28;20238;-73
2023/07/08 12:11:46;;;;;;;2.97;2.67;;;;;;;;;;4964877;28;20192;-73
2023/07/08 12:14:12;;;;;;;3.15;2.80;;;;;;;;;;4980741;28;20243;-74
2023/07/08 12:16:38;;;;;;;3.13;2.78;;;;;;;;;;4980482;28;20192;-74
2023/07/08 12:19:04;;;;;;;3.47;2.58;;;;;;;;;;4974507;28;20207;-73
2023/07/08 12:21:30;;;;;;;3.47;2.50;;;;;;;;;;4971696;28;20201;-74
2023/07/08 12:23:55;;;;;;;4.78;3.22;;;;;;;;;;4976769;28;20191;-73
2023/07/08 12:26:21;;;;;;;3.90;3.00;;;;;;;;;;4972610;28;20172;-74
2023/07/08 12:28:47;;;;;;;5.00;3.33;;;;;;;;;;4966325;28;20176;-74
2023/07/08 12:31:19;;;;;;;4.60;3.40;;;;;;;;;;4960209;28;20190;-73
2023/07/08 12:33:45;;;;;;;5.60;3.72;;;;;;;;;;4971694;28;20184;-73
2023/07/08 12:36:12;;;;;;;7.13;3.50;;;;;;;;;;4971142;28;20188;-74
2023/07/08 12:38:38;;;;;;;4.30;3.30;;;;;;;;;;4975630;28;20187;-74
2023/07/08 12:41:15;;;;;;;4.03;2.90;;;;;;;;;;4991362;28;20234;-74
2023/07/08 12:43:40;;;;;;;3.42;3.00;;;;;;;;;;4989969;28;20179;-74
2023/07/08 12:46:08;;;;;;;5.40;3.40;;;;;;;;;;4980961;28;20180;-73
2023/07/08 12:48:34;;;;;;;4.47;3.38;;;;;;;;;;4972994;28;20180;-73
2023/07/08 12:50:59;;;;;;;3.30;3.00;;;;;;;;;;4974539;28;20188;-73
2023/07/08 12:53:24;;;;;;;4.47;3.22;;;;;;;;;;4988069;28;20175;-73
2023/07/08 12:55:52;;;;;;;4.80;2.80;;;;;;;;;;4972251;28;20241;-74
2023/07/08 12:58:28;;;;;;;6.20;3.42;;;;;;;;;;4976132;28;20411;-74
2023/07/08 13:00:54;;;;;;;6.07;3.50;;;;;;;;;;4980429;28;20212;-74
2023/07/08 13:03:24;;;;;;;4.38;3.35;;;;;;;;;;4972158;28;20211;-74
2023/07/08 13:05:50;;;;;;;3.90;3.50;;;;;;;;;;4986268;28;20172;-74
2023/07/08 13:08:18;;;;;;;5.35;2.90;;;;;;;;;;4992919;28;20176;-74
2023/07/08 13:10:44;;;;;;;3.70;2.83;;;;;;;;;;4977575;28;20172;-74
2023/07/08 13:13:17;;;;;;;4.07;3.03;;;;;;;;;;4977820;28;20258;-74
2023/07/08 13:15:43;;;;;;;2.55;2.35;;;;;;;;;;4990566;28;20219;-74
2023/07/08 13:18:15;;;;;;;3.38;2.67;;;;;;;;;;4991436;28;20222;-73
2023/07/08 13:20:41;;;;;;;3.72;2.95;;;;;;;;;;4994729;28;20187;-74
2023/07/08 13:23:07;;;;;;;3.63;2.97;;;;;;;;;;4985441;28;20200;-74
2023/07/08 13:25:33;;;;;;;5.03;3.42;;;;;;;;;;4985804;28;20272;-74
2023/07/08 13:28:01;;;;;;;3.85;2.83;;;;;;;;;;4985964;28;20276;-74
2023/07/08 13:30:29;;;;;;;3.40;2.80;;;;;;;;;;4976827;28;20184;-74
2023/07/08 13:32:55;;;;;;;3.60;2.88;;;;;;;;;;4972524;28;20187;-74
2023/07/08 13:35:26;;;;;;;3.83;3.17;;;;;;;;;;4976975;28;20184;-73
2023/07/08 13:37:52;;;;;;;6.60;3.63;;;;;;;;;;4976956;28;20334;-73
2023/07/08 13:40:17;;;;;;;7.57;3.15;;;;;;;;;;4975885;28;20252;-73
2023/07/08 13:42:47;;;;;;;5.07;4.00;;;;;;;;;;4967283;28;20197;-73
2023/07/08 13:45:14;;;;;;;32.35;7.03;;;;;;;;;;4983091;28;20200;-74
2023/07/08 13:47:39;;;;;;;3.58;3.17;;;;;;;;;;4975472;28;20179;-74
2023/07/08 13:50:06;;;;;;;4.43;3.25;;;;;;;;;;4973700;28;20180;-73
2023/07/08 13:52:32;;;;;;;4.55;3.20;;;;;;;;;;4972244;28;20176;-73
2023/07/08 13:54:58;;;;;;;3.58;3.28;;;;;;;;;;4993402;28;20190;-74
2023/07/08 13:57:32;;;;;;;3.42;3.00;;;;;;;;;;4988739;28;20267;-73
2023/07/08 13:59:57;;;;;;;4.78;3.38;;;;;;;;;;4966641;28;20247;-74
2023/07/08 14:02:24;;;;;;;3.30;2.90;;;;;;;;;;4974771;28;20199;-74
2023/07/08 14:04:51;;;;;;;4.85;3.60;;;;;;;;;;4970673;28;20184;-73
2023/07/08 14:07:17;;;;;;;3.65;2.88;;;;;;;;;;4976753;28;20173;-73
2023/07/08 14:09:43;;;;;;;3.38;2.92;;;;;;;;;;4983658;28;20204;-74
2023/07/08 14:12:08;;;;;;;3.42;3.10;;;;;;;;;;4992245;28;20180;-74
2023/07/08 14:14:33;;;;;;;3.83;3.08;;;;;;;;;;4988094;28;20234;-74
2023/07/08 14:16:58;;;;;;;4.63;3.23;;;;;;;;;;4969253;28;20189;-74
2023/07/08 14:19:26;;;;;;;2.95;2.72;;;;;;;;;;4981744;28;20426;-73
2023/07/08 14:21:53;;;;;;;3.90;3.03;;;;;;;;;;4969005;28;20285;-74
2023/07/08 14:24:18;;;;;;;3.92;2.92;;;;;;;;;;4976862;28;20164;-74
2023/07/08 14:26:44;;;;;;;5.00;3.55;;;;;;;;;;4972241;28;20191;-74
2023/07/08 14:29:09;;;;;;;3.50;3.20;;;;;;;;;;4992688;28;20172;-74
2023/07/08 14:31:34;;;;;;;3.95;3.13;;;;;;;;;;4972260;28;20231;-73
2023/07/08 14:34:05;;;;;;;3.92;3.00;;;;;;;;;;4977660;28;20231;-74
2023/07/08 14:36:31;;;;;;;3.53;3.17;;;;;;;;;;4987441;28;20191;-74
2023/07/08 14:38:57;;;;;;;6.35;3.50;;;;;;;;;;4973381;28;20184;-74
2023/07/08 14:41:23;;;;;;;8.60;4.13;;;;;;;;;;4985983;28;20192;-74
2023/07/08 14:43:48;;;;;;;4.68;3.05;;;;;;;;;;4986782;28;20244;-74